Port Hood, Canada
Current Conditions -  °F | °C
As of 10:00 AM on Monday 22 Dec 2014 (Local Time) from CYPD Reporting Station
Overcast Overcast  
Wind Chill: 20°   Ceiling: 1700
Heat Index: 27°   Visibility: 9mi
Dew Point: 21°   Wind: 6mph
Humidity: 80%   Direction: 60°ENE
Pressure: 30.44"   Gusts: NA
Location:  46.03°N, 61.53°W
Report Text: CYPD 221400Z AUTO 06005KT 350V080 9SM OVC017 M03/M06 A3044 RMK SLP316
Loading
Personal Weather Stations






























Interactive Weather Map New forecast layout! Learn more

10-Day Weather Forecast

Advertisements
Track Severe Weather on mobile